Time;durP1;ratioP1;P1;durP2;ratioP2;P2;SDS_P1;SDS_P2;PMS_P1;PMS_P2;Temp;Humidity;BMP_temperature;BMP_pressure;BME280_temperature;BME280_humidity;BME280_pressure;Samples;Min_cycle;Max_cycle;Signal;HPM_P1;HPM_P2
2021/03/20 00:02:08;;;;;;;0.20;0.10;;;;;;;-0.16;100.00;101249.22;4995271;28;20977;-51
2021/03/20 00:04:35;;;;;;;0.20;0.10;;;;;;;-0.22;100.00;101248.19;4995799;28;20846;-51
2021/03/20 00:07:02;;;;;;;0.20;0.10;;;;;;;-0.34;100.00;101253.91;4995641;28;20546;-51
2021/03/20 00:09:29;;;;;;;1.17;1.17;;;;;;;-0.38;100.00;101252.94;4994338;28;20584;-51
2021/03/20 00:11:57;;;;;;;0.20;0.10;;;;;;;-0.42;100.00;101258.00;4995570;28;20453;-52
2021/03/20 00:14:24;;;;;;;0.20;0.10;;;;;;;-0.40;100.00;101257.22;4996540;28;20499;-51
2021/03/20 00:16:52;;;;;;;0.20;0.10;;;;;;;-0.46;100.00;101258.75;5006828;28;20932;-52
2021/03/20 00:19:19;;;;;;;0.30;0.20;;;;;;;-0.53;100.00;101254.19;5010007;28;20498;-52
2021/03/20 00:21:46;;;;;;;0.20;0.10;;;;;;;-0.62;100.00;101258.25;4994814;28;20465;-52
2021/03/20 00:24:12;;;;;;;0.20;0.10;;;;;;;-0.71;100.00;101255.34;4995522;28;20462;-51
2021/03/20 00:26:39;;;;;;;0.20;0.10;;;;;;;-0.69;100.00;101264.09;4981687;28;20458;-53
2021/03/20 00:29:06;;;;;;;0.20;0.10;;;;;;;-0.78;100.00;101261.22;4980111;28;20473;-52
2021/03/20 00:31:33;;;;;;;0.20;0.20;;;;;;;-0.85;100.00;101264.44;4995591;28;20462;-52
2021/03/20 00:33:59;;;;;;;0.20;0.10;;;;;;;-0.73;100.00;101261.34;4995394;28;20454;-52
2021/03/20 00:36:26;;;;;;;0.20;0.10;;;;;;;-0.66;100.00;101271.19;4997099;28;20465;-51
2021/03/20 00:39:06;;;;;;;0.20;0.10;;;;;;;-0.69;100.00;101260.59;5008407;28;20497;-52
2021/03/20 00:41:33;;;;;;;0.20;0.10;;;;;;;-0.73;100.00;101259.63;4994839;28;20461;-52
2021/03/20 00:43:59;;;;;;;0.20;0.10;;;;;;;-0.73;100.00;101262.25;5010075;28;20461;-52
2021/03/20 00:46:26;;;;;;;0.20;0.10;;;;;;;-0.69;100.00;101256.28;4987271;28;20982;-52
2021/03/20 00:48:52;;;;;;;0.20;0.10;;;;;;;-0.68;100.00;101263.31;5003388;28;20478;-52
2021/03/20 00:51:18;;;;;;;0.20;0.10;;;;;;;-0.64;100.00;101266.88;4988606;28;20473;-51
2021/03/20 00:53:44;;;;;;;0.20;0.10;;;;;;;-0.54;100.00;101268.06;5011901;28;20460;-52
2021/03/20 00:56:11;;;;;;;0.20;0.10;;;;;;;-0.53;100.00;101267.25;4999477;28;20458;-52
2021/03/20 00:58:43;;;;;;;0.30;0.10;;;;;;;-0.60;100.00;101258.31;5001401;28;20548;-53
2021/03/20 01:01:17;;;;;;;0.20;0.10;;;;;;;-0.43;100.00;101264.06;5000757;28;20446;-52
2021/03/20 01:03:44;;;;;;;0.20;0.10;;;;;;;-0.36;100.00;101263.44;4980835;28;20481;-52
2021/03/20 01:06:15;;;;;;;0.20;0.10;;;;;;;-0.32;100.00;101267.91;4998581;28;20472;-53
2021/03/20 01:08:41;;;;;;;0.50;0.50;;;;;;;-0.46;100.00;101266.56;5011588;28;20452;-52
2021/03/20 01:11:09;;;;;;;0.20;0.10;;;;;;;-0.37;100.00;101280.81;4995178;28;20493;-52
2021/03/20 01:13:36;;;;;;;0.73;0.73;;;;;;;-0.31;100.00;101272.28;5009242;28;20450;-51
2021/03/20 01:16:02;;;;;;;0.20;0.10;;;;;;;-0.38;100.00;101279.06;4989522;28;20453;-51
2021/03/20 01:18:28;;;;;;;0.20;0.10;;;;;;;-0.26;100.00;101272.44;5009073;28;20515;-52
2021/03/20 01:20:55;;;;;;;0.20;0.10;;;;;;;-0.24;100.00;101273.38;5009123;28;20486;-51
2021/03/20 01:23:21;;;;;;;0.20;0.10;;;;;;;-0.27;100.00;101270.63;5009459;28;20464;-51
2021/03/20 01:25:48;;;;;;;0.20;0.10;;;;;;;-0.22;100.00;101271.69;5005005;28;20846;-51
2021/03/20 01:28:14;;;;;;;0.20;0.10;;;;;;;-0.22;100.00;101271.69;4993589;28;20446;-51
2021/03/20 01:30:42;;;;;;;0.20;0.10;;;;;;;-0.15;100.00;101264.06;5009000;28;20470;-51
2021/03/20 01:33:09;;;;;;;0.20;0.10;;;;;;;-0.18;100.00;101271.81;4994036;28;20453;-51
2021/03/20 01:35:40;;;;;;;0.20;0.10;;;;;;;-0.04;100.00;101269.63;4992437;28;20959;-52
2021/03/20 01:38:06;;;;;;;0.20;0.10;;;;;;;0.11;100.00;101272.69;4993713;28;20458;-51
2021/03/20 01:40:36;;;;;;;0.20;0.10;;;;;;;0.19;100.00;101273.81;5009047;28;20491;-51
2021/03/20 01:43:05;;;;;;;0.20;0.20;;;;;;;0.14;100.00;101280.66;4994152;28;20449;-51
2021/03/20 01:45:35;;;;;;;0.20;0.10;;;;;;;0.17;100.00;101278.13;5007707;28;20468;-51
2021/03/20 01:48:18;;;;;;;0.20;0.10;;;;;;;0.21;100.00;101290.44;4986553;28;20553;-51
2021/03/20 01:50:53;;;;;;;0.20;0.10;;;;;;;0.14;100.00;101277.16;4987192;28;20484;-53
2021/03/20 01:53:39;;;;;;;0.20;0.10;;;;;;;0.14;100.00;101278.03;4996348;28;20449;-53
2021/03/20 01:56:09;;;;;;;0.20;0.10;;;;;;;0.04;100.00;101275.09;5010739;28;20458;-52
2021/03/20 01:58:38;;;;;;;0.20;0.10;;;;;;;0.08;100.00;101274.34;4996089;28;20494;-53
2021/03/20 02:01:07;;;;;;;0.20;0.10;;;;;;;0.02;100.00;101275.06;4995734;28;20999;-52
2021/03/20 02:03:34;;;;;;;0.20;0.10;;;;;;;0.05;100.00;101266.41;5008890;28;20496;-53
2021/03/20 02:06:02;;;;;;;0.20;0.10;;;;;;;-0.02;100.00;101273.16;4994099;28;20472;-53
2021/03/20 02:08:29;;;;;;;0.20;0.10;;;;;;;-0.07;100.00;101274.75;5008972;28;20449;-53
2021/03/20 02:11:03;;;;;;;0.20;0.10;;;;;;;-0.12;100.00;101272.03;4993654;28;20477;-52
2021/03/20 02:13:42;;;;;;;0.20;0.10;;;;;;;-0.14;100.00;101270.19;4992499;28;20465;-52
2021/03/20 02:20:21;;;;;;;0.20;0.10;;;;;;;-0.24;100.00;101255.09;4953014;29;20930;-52
2021/03/20 02:23:08;;;;;;;0.20;0.10;;;;;;;-0.40;100.00;101261.56;4952996;29;20446;-52
2021/03/20 02:26:04;;;;;;;0.20;0.10;;;;;;;-0.48;100.00;101263.03;4933401;29;20468;-52
2021/03/20 02:28:49;;;;;;;0.20;0.10;;;;;;;-0.59;100.00;101260.06;4938126;29;20502;-52
2021/03/20 02:31:22;;;;;;;0.20;0.10;;;;;;;-0.79;100.00;101256.84;4914896;29;20462;-52
2021/03/20 02:34:16;;;;;;;0.20;0.10;;;;;;;-0.66;100.00;101255.50;4955630;29;20530;-52
2021/03/20 02:37:06;;;;;;;0.20;0.10;;;;;;;-0.91;100.00;101254.72;4956318;29;21086;-52
2021/03/20 02:39:39;;;;;;;0.20;0.10;;;;;;;-0.84;100.00;101247.06;4920169;28;20499;-52
2021/03/20 02:42:13;;;;;;;0.20;0.10;;;;;;;-0.99;100.00;101248.34;4944557;29;20546;-52
2021/03/20 02:44:53;;;;;;;0.20;0.10;;;;;;;-1.05;100.00;101245.53;4944727;29;20531;-52
2021/03/20 02:47:51;;;;;;;0.20;0.17;;;;;;;-1.03;100.00;101253.41;4949911;29;20435;-52
2021/03/20 02:50:26;;;;;;;0.20;0.10;;;;;;;-1.08;100.00;101254.97;4943473;29;20551;-51
2021/03/20 02:53:06;;;;;;;0.20;0.10;;;;;;;-1.18;100.00;101248.56;4942681;29;20450;-52
2021/03/20 02:55:45;;;;;;;0.20;0.10;;;;;;;-1.26;100.00;101244.78;4919457;28;20465;-51
2021/03/20 02:58:35;;;;;;;0.20;0.10;;;;;;;-1.34;100.00;101241.03;4999762;28;20446;-51
2021/03/20 03:01:08;;;;;;;0.20;0.10;;;;;;;-1.29;100.00;101249.91;5000471;28;20469;-51
2021/03/20 03:03:39;;;;;;;0.20;0.10;;;;;;;-1.35;100.00;101257.53;5000920;28;20469;-51
2021/03/20 03:06:16;;;;;;;0.20;0.10;;;;;;;-1.39;100.00;101258.22;5002068;28;20553;-52
2021/03/20 03:08:47;;;;;;;0.20;0.10;;;;;;;-1.43;100.00;101264.19;5002994;28;20460;-52
2021/03/20 03:11:22;;;;;;;0.20;0.10;;;;;;;-1.31;100.00;101268.09;5017282;28;20461;-51
2021/03/20 03:14:29;;;;;;;0.20;0.10;;;;;;;-1.28;100.00;101265.59;5003626;28;20511;-51
2021/03/20 03:17:00;;;;;;;0.20;0.10;;;;;;;-1.38;100.00;101276.53;5015841;28;20453;-51
2021/03/20 03:19:33;;;;;;;0.20;0.10;;;;;;;-0.62;100.00;101286.09;4998557;28;20500;-51
2021/03/20 03:22:08;;;;;;;0.20;0.10;;;;;;;-0.21;100.00;101281.28;5003435;28;20504;-51
2021/03/20 03:24:38;;;;;;;0.20;0.10;;;;;;;0.07;99.94;101289.13;5016213;28;20541;-52
2021/03/20 03:27:12;;;;;;;0.20;0.10;;;;;;;0.01;100.00;101296.81;4994510;28;20465;-52
2021/03/20 03:29:39;;;;;;;0.20;0.10;;;;;;;-0.01;100.00;101301.06;4972931;28;20523;-51
2021/03/20 03:32:09;;;;;;;0.20;0.10;;;;;;;0.06;100.00;101297.81;4999194;28;20949;-51
2021/03/20 03:34:44;;;;;;;0.20;0.10;;;;;;;-0.87;100.00;101291.34;5015129;28;20493;-51
2021/03/20 03:37:34;;;;;;;0.20;0.10;;;;;;;-1.01;100.00;101289.13;4998152;28;20829;-52
2021/03/20 03:40:12;;;;;;;0.20;0.10;;;;;;;-1.05;100.00;101299.44;4986009;28;20505;-51
2021/03/20 03:42:38;;;;;;;0.20;0.10;;;;;;;-1.04;100.00;101298.59;4987955;28;20519;-52
2021/03/20 03:45:09;;;;;;;0.20;0.10;;;;;;;-0.76;100.00;101305.63;4996145;28;20478;-52
2021/03/20 03:47:36;;;;;;;0.20;0.10;;;;;;;-0.81;100.00;101302.88;5000910;28;20468;-52
2021/03/20 03:50:09;;;;;;;0.20;0.10;;;;;;;-0.74;100.00;101303.97;4995846;28;20477;-52
2021/03/20 03:52:36;;;;;;;0.20;0.10;;;;;;;-0.83;100.00;101303.63;4995343;28;20456;-52
2021/03/20 03:55:05;;;;;;;0.20;0.10;;;;;;;-0.82;100.00;101318.47;5010606;28;20449;-52
2021/03/20 03:57:50;;;;;;;0.20;0.10;;;;;;;-0.86;100.00;101311.38;4995954;28;20457;-52
2021/03/20 04:00:41;;;;;;;0.20;0.10;;;;;;;-0.61;100.00;101314.84;4995387;28;20501;-52
2021/03/20 04:03:29;;;;;;;0.20;0.10;;;;;;;-0.79;100.00;101316.88;4995473;28;20454;-52
2021/03/20 04:06:40;;;;;;;0.20;0.10;;;;;;;-1.10;100.00;101317.50;5010356;28;20446;-52
2021/03/20 04:09:37;;;;;;;0.20;0.10;;;;;;;-1.21;100.00;101324.09;4980396;28;20542;-52
2021/03/20 04:12:15;;;;;;;0.20;0.10;;;;;;;-1.31;100.00;101316.75;4972314;28;20510;-51
2021/03/20 04:15:03;;;;;;;0.20;0.20;;;;;;;-1.44;100.00;101310.22;5009960;28;20442;-52
2021/03/20 04:17:34;;;;;;;0.20;0.10;;;;;;;-1.36;100.00;101313.13;5005987;28;20794;-52
2021/03/20 04:20:22;;;;;;;0.20;0.10;;;;;;;-1.39;100.00;101295.63;4971669;28;20493;-52
2021/03/20 04:23:03;;;;;;;0.20;0.10;;;;;;;-1.47;100.00;101297.09;4995165;28;20453;-52
2021/03/20 04:25:45;;;;;;;0.20;0.10;;;;;;;-1.07;100.00;101299.38;4991334;28;20833;-52
2021/03/20 04:28:38;;;;;;;0.20;0.10;;;;;;;-1.20;100.00;101290.25;4972617;28;20836;-52
2021/03/20 04:31:15;;;;;;;0.20;0.10;;;;;;;-1.38;100.00;101296.50;5010229;28;20458;-52
2021/03/20 04:34:16;;;;;;;0.20;0.10;;;;;;;-1.34;100.00;101303.63;5010264;28;20461;-52
2021/03/20 04:36:49;;;;;;;0.20;0.10;;;;;;;-1.35;100.00;101297.53;4981902;28;20894;-52
2021/03/20 04:39:21;;;;;;;0.20;0.10;;;;;;;-1.32;100.00;101305.44;4969081;28;20498;-52
2021/03/20 04:42:06;;;;;;;0.20;0.10;;;;;;;-1.24;100.00;101300.50;4994826;28;20469;-52
2021/03/20 04:44:37;;;;;;;0.20;0.10;;;;;;;-1.27;100.00;101311.69;4994475;28;20821;-52
2021/03/20 04:47:16;;;;;;;0.20;0.10;;;;;;;-1.24;100.00;101306.59;4999683;28;20523;-52
2021/03/20 04:50:13;;;;;;;0.20;0.10;;;;;;;-1.19;100.00;101314.59;4994465;28;20505;-52
2021/03/20 04:52:59;;;;;;;0.20;0.10;;;;;;;-1.10;100.00;101319.22;4977449;28;20532;-52
2021/03/20 04:55:30;;;;;;;0.43;0.43;;;;;;;-1.03;100.00;101327.34;5008959;28;20463;-52
2021/03/20 04:58:36;;;;;;;0.20;0.10;;;;;;;-1.07;100.00;101328.06;4995027;28;20536;-52
2021/03/20 05:01:22;;;;;;;0.20;0.10;;;;;;;-0.97;100.00;101334.47;4988527;28;20532;-52
2021/03/20 05:04:26;;;;;;;0.20;0.10;;;;;;;-0.89;100.00;101343.47;4971982;28;20540;-52
2021/03/20 05:07:02;;;;;;;0.20;0.10;;;;;;;-0.75;100.00;101336.13;4998996;28;20997;-52
2021/03/20 05:09:37;;;;;;;0.20;0.10;;;;;;;-0.80;100.00;101332.47;4996298;28;20900;-52
2021/03/20 05:12:22;;;;;;;0.20;0.10;;;;;;;-0.60;100.00;101340.13;4998408;28;20487;-52
2021/03/20 05:15:14;;;;;;;0.20;0.10;;;;;;;-0.37;100.00;101340.88;4998871;28;20833;-53
2021/03/20 05:17:44;;;;;;;0.20;0.10;;;;;;;-0.35;100.00;101338.31;5007459;28;20488;-52
2021/03/20 05:20:17;;;;;;;0.20;0.10;;;;;;;-0.37;100.00;101338.28;5010627;28;20905;-53
2021/03/20 05:22:44;;;;;;;0.20;0.10;;;;;;;-0.34;100.00;101335.75;4996135;28;20552;-52
2021/03/20 05:25:16;;;;;;;0.20;0.10;;;;;;;-0.32;100.00;101334.06;4995913;28;20496;-51
2021/03/20 05:27:43;;;;;;;0.20;0.10;;;;;;;-0.32;100.00;101339.31;4994367;28;20507;-52
2021/03/20 05:30:11;;;;;;;0.20;0.10;;;;;;;-0.38;100.00;101339.13;4997244;28;20532;-52
2021/03/20 05:32:38;;;;;;;0.20;0.10;;;;;;;-0.26;100.00;101340.34;4998739;28;20548;-51
2021/03/20 05:35:10;;;;;;;0.20;0.10;;;;;;;-0.11;100.00;101333.00;5000272;28;20484;-52
2021/03/20 05:37:39;;;;;;;0.20;0.20;;;;;;;-0.30;100.00;101336.72;4999762;28;20453;-52
2021/03/20 05:40:35;;;;;;;0.20;0.10;;;;;;;-0.30;100.00;101347.19;4997559;28;20497;-52
2021/03/20 05:43:12;;;;;;;0.20;0.10;;;;;;;-0.22;100.00;101360.50;4992766;28;20511;-51
2021/03/20 05:45:49;;;;;;;0.20;0.10;;;;;;;-0.20;100.00;101371.88;4990115;28;20472;-51
2021/03/20 05:48:54;;;;;;;0.20;0.10;;;;;;;-0.26;100.00;101372.59;5019578;28;20450;-52
2021/03/20 05:51:58;;;;;;;0.20;0.10;;;;;;;-0.08;100.00;101378.41;4982925;28;20851;-53
2021/03/20 05:54:43;;;;;;;0.20;0.10;;;;;;;-0.10;100.00;101374.84;4976005;28;20869;-51
2021/03/20 05:57:41;;;;;;;0.20;0.10;;;;;;;0.01;100.00;101369.09;4969156;28;20457;-51
2021/03/20 06:00:29;;;;;;;0.20;0.10;;;;;;;0.10;100.00;101361.50;4993536;28;20497;-51
2021/03/20 06:03:20;;;;;;;0.20;0.10;;;;;;;0.22;100.00;101368.00;5009389;28;20468;-52
2021/03/20 06:06:00;;;;;;;0.20;0.10;;;;;;;0.35;100.00;101358.81;5009051;28;20466;-51
2021/03/20 06:08:35;;;;;;;0.20;0.10;;;;;;;0.46;100.00;101357.41;5008751;28;20449;-52
2021/03/20 06:11:17;;;;;;;0.20;0.10;;;;;;;0.63;100.00;101364.84;4994261;28;20485;-53
2021/03/20 06:13:54;;;;;;;0.20;0.10;;;;;;;0.66;99.66;101368.44;4993839;28;20455;-53
2021/03/20 06:16:32;;;;;;;0.20;0.10;;;;;;;0.70;99.82;101370.31;5007893;28;20461;-53
2021/03/20 06:19:31;;;;;;;0.20;0.10;;;;;;;0.73;99.55;101373.00;5012493;28;20507;-53
2021/03/20 06:22:42;;;;;;;0.20;0.10;;;;;;;0.73;99.86;101385.22;4980015;28;20906;-53
2021/03/20 06:25:35;;;;;;;0.20;0.10;;;;;;;0.70;98.20;101377.28;4969219;28;20467;-53
2021/03/20 06:28:02;;;;;;;0.20;0.10;;;;;;;0.77;98.35;101382.72;4973849;28;20490;-53
2021/03/20 06:30:40;;;;;;;0.20;0.10;;;;;;;0.80;97.58;101387.16;4990549;28;20481;-53
2021/03/20 06:33:31;;;;;;;0.20;0.10;;;;;;;0.80;97.63;101395.00;5012517;28;20517;-53
2021/03/20 06:36:06;;;;;;;0.20;0.10;;;;;;;0.79;97.64;101403.69;4995960;28;20461;-53
2021/03/20 06:38:38;;;;;;;0.20;0.10;;;;;;;0.81;98.30;101410.72;4997277;28;20462;-53
2021/03/20 06:41:33;;;;;;;0.20;0.10;;;;;;;0.83;96.49;101413.44;5012075;28;20515;-53
2021/03/20 06:44:12;;;;;;;0.20;0.10;;;;;;;0.89;96.18;101405.72;5011863;28;20532;-53
2021/03/20 06:46:39;;;;;;;0.20;0.10;;;;;;;0.87;95.97;101413.53;4985024;28;20453;-53
2021/03/20 06:49:23;;;;;;;0.20;0.10;;;;;;;0.97;95.96;101417.31;4996531;28;20486;-52
2021/03/20 06:51:51;;;;;;;0.20;0.10;;;;;;;1.03;94.75;101409.63;4997460;28;20512;-52
2021/03/20 06:54:27;;;;;;;0.20;0.10;;;;;;;1.03;94.93;101413.97;4997197;28;21028;-52
2021/03/20 06:56:54;;;;;;;0.20;0.10;;;;;;;1.24;94.73;101406.72;4995747;28;20453;-52
2021/03/20 06:59:23;;;;;;;0.20;0.10;;;;;;;1.23;94.93;101412.78;4996942;28;20501;-52
2021/03/20 07:02:00;;;;;;;0.20;0.10;;;;;;;1.39;94.41;101407.13;4996758;28;20476;-52
2021/03/20 07:04:38;;;;;;;0.20;0.10;;;;;;;1.21;93.62;101414.47;4996920;28;20460;-52
2021/03/20 07:07:42;;;;;;;0.20;0.10;;;;;;;1.24;91.97;101413.69;4972562;28;20457;-52
2021/03/20 07:10:54;;;;;;;0.20;0.20;;;;;;;1.32;89.55;101418.28;4971081;28;20491;-52
2021/03/20 07:13:31;;;;;;;0.20;0.10;;;;;;;1.36;87.94;101424.47;4996547;28;20471;-52
2021/03/20 07:16:17;;;;;;;0.20;0.10;;;;;;;1.55;89.10;101426.75;5007716;28;20469;-52
2021/03/20 07:18:59;;;;;;;0.20;0.10;;;;;;;1.61;86.67;101423.41;4996667;28;20493;-52
2021/03/20 07:21:33;;;;;;;0.20;0.10;;;;;;;1.60;86.40;101429.50;4970936;28;20449;-52
2021/03/20 07:24:09;;;;;;;0.20;0.10;;;;;;;1.49;83.78;101430.09;4995533;28;20453;-52
2021/03/20 07:26:55;;;;;;;0.20;0.10;;;;;;;1.62;83.00;101427.78;5006880;28;20992;-52
2021/03/20 07:29:40;;;;;;;0.20;0.10;;;;;;;1.61;83.58;101433.88;5011467;28;20465;-52
2021/03/20 07:32:07;;;;;;;0.20;0.10;;;;;;;1.48;82.59;101443.16;4996321;28;20824;-52
2021/03/20 07:34:35;;;;;;;0.20;0.10;;;;;;;1.59;82.63;101440.81;4996592;28;20520;-52
2021/03/20 07:37:29;;;;;;;0.20;0.10;;;;;;;1.75;81.42;101442.97;4996258;28;20966;-52
2021/03/20 07:39:58;;;;;;;0.20;0.10;;;;;;;1.63;81.34;101443.56;4995486;28;20503;-52
2021/03/20 07:42:37;;;;;;;0.20;0.10;;;;;;;1.76;80.20;101442.13;4994653;28;20468;-52
2021/03/20 07:45:17;;;;;;;0.20;0.10;;;;;;;1.61;80.52;101439.13;5011083;28;20461;-52
2021/03/20 07:47:55;;;;;;;0.20;0.10;;;;;;;1.74;80.94;101442.09;4985152;28;20507;-52
2021/03/20 07:50:25;;;;;;;0.20;0.10;;;;;;;1.77;79.87;101442.16;4995871;28;20458;-53
2021/03/20 07:53:13;;;;;;;0.20;0.10;;;;;;;1.79;79.54;101455.34;4996107;28;21040;-52
2021/03/20 07:56:04;;;;;;;0.20;0.10;;;;;;;1.88;79.19;101458.19;4971885;28;20947;-52
2021/03/20 07:58:42;;;;;;;0.20;0.10;;;;;;;1.85;79.27;101468.59;5010592;28;20469;-52
2021/03/20 08:01:30;;;;;;;0.20;0.10;;;;;;;1.96;78.31;101467.13;5010731;28;20481;-52
2021/03/20 08:04:00;;;;;;;0.20;0.10;;;;;;;2.10;78.31;101469.22;4973988;28;20458;-52
2021/03/20 08:06:27;;;;;;;0.20;0.10;;;;;;;2.16;78.55;101474.59;5011149;28;20459;-52
2021/03/20 08:09:12;;;;;;;0.20;0.10;;;;;;;2.02;78.05;101475.16;4996299;28;21054;-52
2021/03/20 08:11:38;;;;;;;0.20;0.10;;;;;;;2.27;78.09;101479.25;5010418;28;20480;-52
2021/03/20 08:14:13;;;;;;;0.20;0.10;;;;;;;2.42;78.54;101465.63;4995673;28;20469;-53
2021/03/20 08:16:41;;;;;;;0.20;0.10;;;;;;;2.33;76.47;101465.41;4991123;28;20437;-53
2021/03/20 08:19:13;;;;;;;0.20;0.10;;;;;;;2.33;77.61;101479.44;5009897;28;20999;-55
2021/03/20 08:21:46;;;;;;;0.20;0.10;;;;;;;2.67;77.09;101481.09;5027067;28;20461;-57
2021/03/20 08:24:16;;;;;;;0.20;0.10;;;;;;;2.83;76.94;101481.44;5010988;28;20912;-53
2021/03/20 08:26:45;;;;;;;0.20;0.10;;;;;;;2.66;75.36;101487.19;5006310;28;20469;-53
2021/03/20 08:29:57;;;;;;;0.20;0.10;;;;;;;2.74;75.25;101482.13;4994940;28;20473;-53
2021/03/20 08:32:49;;;;;;;0.20;0.10;;;;;;;2.51;74.52;101485.97;5010038;28;20469;-53
2021/03/20 08:35:24;;;;;;;0.20;0.10;;;;;;;2.50;76.01;101486.81;5010063;28;20470;-53
2021/03/20 08:38:19;;;;;;;0.20;0.10;;;;;;;2.54;75.56;101494.78;5010179;28;20469;-53
2021/03/20 08:40:54;;;;;;;0.20;0.10;;;;;;;2.58;75.47;101506.22;4994555;28;20875;-53
2021/03/20 08:43:46;;;;;;;0.20;0.10;;;;;;;2.59;76.39;101514.13;5009916;28;20449;-53
2021/03/20 08:46:22;;;;;;;0.20;0.10;;;;;;;2.60;76.18;101510.69;4968329;28;20454;-54
2021/03/20 08:49:26;;;;;;;0.20;0.10;;;;;;;2.88;75.99;101514.81;5008298;28;20465;-54
2021/03/20 08:52:21;;;;;;;0.20;0.10;;;;;;;2.67;74.98;101512.59;4994657;28;20552;-54
2021/03/20 08:55:03;;;;;;;0.20;0.10;;;;;;;2.59;75.34;101508.00;4993549;28;20457;-54
2021/03/20 08:57:50;;;;;;;0.20;0.10;;;;;;;2.89;75.63;101519.22;4973002;28;20461;-54
2021/03/20 09:00:31;;;;;;;0.20;0.10;;;;;;;3.09;75.16;101511.75;5075688;27;20548;-54
2021/03/20 09:03:03;;;;;;;0.20;0.10;;;;;;;3.31;75.52;101522.75;5069884;28;20541;-54
2021/03/20 09:05:42;;;;;;;0.20;0.10;;;;;;;2.96;74.92;101523.75;5059631;28;20453;-55
2021/03/20 09:08:08;;;;;;;0.20;0.10;;;;;;;2.89;74.96;101513.09;5058199;28;20504;-55
2021/03/20 09:10:38;;;;;;;0.20;0.10;;;;;;;3.06;74.99;101500.31;5069598;28;20919;-54
2021/03/20 09:13:20;;;;;;;0.20;0.10;;;;;;;3.10;75.32;101492.53;5066120;28;20501;-53
2021/03/20 09:15:56;;;;;;;0.20;0.10;;;;;;;3.09;75.56;101498.63;5062194;28;20836;-53
2021/03/20 09:18:23;;;;;;;0.20;0.10;;;;;;;3.36;74.05;101511.47;5065096;28;20485;-53
2021/03/20 09:20:53;;;;;;;0.20;0.10;;;;;;;3.05;72.59;101503.81;5063458;28;20465;-54
2021/03/20 09:23:30;;;;;;;0.20;0.10;;;;;;;3.12;73.06;101503.94;5050980;28;20451;-53
2021/03/20 09:26:01;;;;;;;0.20;0.10;;;;;;;3.06;72.59;101506.47;5062467;28;20466;-54
2021/03/20 09:28:52;;;;;;;0.20;0.10;;;;;;;3.04;72.21;101497.66;5060723;28;20457;-54
2021/03/20 09:31:28;;;;;;;0.20;0.10;;;;;;;3.36;72.69;101495.69;5059658;28;20460;-54
2021/03/20 09:34:01;;;;;;;0.20;0.20;;;;;;;3.29;71.48;101496.44;5056302;28;20508;-54
2021/03/20 09:36:42;;;;;;;0.20;0.10;;;;;;;3.51;71.45;101495.09;5059847;28;20458;-54
2021/03/20 09:39:43;;;;;;;0.20;0.10;;;;;;;3.32;69.87;101488.63;5071274;28;20504;-55
2021/03/20 09:42:28;;;;;;;0.20;0.10;;;;;;;3.54;70.16;101489.91;5102651;28;20458;-53
2021/03/20 09:45:26;;;;;;;0.20;0.10;;;;;;;3.42;69.51;101485.28;5070626;28;20526;-52
2021/03/20 09:47:56;;;;;;;0.20;0.10;;;;;;;3.52;68.44;101475.84;5051620;28;20466;-54
2021/03/20 09:50:23;;;;;;;0.20;0.10;;;;;;;3.58;68.42;101470.72;5067302;28;20474;-52
2021/03/20 09:53:08;;;;;;;0.20;0.10;;;;;;;3.43;68.67;101467.81;5069571;28;20454;-52
2021/03/20 09:55:42;;;;;;;0.20;0.10;;;;;;;3.28;69.36;101471.88;5049764;28;20459;-53
2021/03/20 09:58:20;;;;;;;0.20;0.10;;;;;;;3.46;67.40;101466.13;5063655;28;20499;-53
2021/03/20 10:00:52;;;;;;;0.20;0.10;;;;;;;3.90;67.37;101470.41;5057502;28;20489;-52
2021/03/20 10:03:35;;;;;;;0.20;0.20;;;;;;;3.71;66.87;101477.09;5055570;28;20446;-53
2021/03/20 10:06:26;;;;;;;0.20;0.10;;;;;;;3.88;68.14;101474.78;5069132;28;20534;-53
2021/03/20 10:09:15;;;;;;;0.20;0.10;;;;;;;4.21;68.05;101475.31;5049014;28;20442;-52
2021/03/20 10:11:50;;;;;;;0.20;0.10;;;;;;;4.23;66.21;101465.72;5055830;28;20447;-52
2021/03/20 10:14:33;;;;;;;0.20;0.10;;;;;;;3.88;63.57;101474.78;5054827;28;20446;-53
2021/03/20 10:17:13;;;;;;;0.20;0.10;;;;;;;4.30;66.42;101470.22;5038498;28;20444;-53
2021/03/20 10:20:12;;;;;;;0.20;0.10;;;;;;;4.33;64.83;101461.50;5053676;28;20581;-53
2021/03/20 10:23:01;;;;;;;0.20;0.10;;;;;;;4.01;63.91;101464.50;5042095;28;20936;-53
2021/03/20 10:25:30;;;;;;;0.20;0.10;;;;;;;4.70;65.13;101465.56;5046562;28;20811;-54
2021/03/20 10:28:07;;;;;;;0.20;0.10;;;;;;;4.73;63.53;101458.59;5043962;28;20862;-53
2021/03/20 10:30:36;;;;;;;0.20;0.10;;;;;;;4.39;65.13;101461.59;5041823;28;20490;-53
2021/03/20 10:33:07;;;;;;;0.20;0.10;;;;;;;4.34;65.42;101461.50;5046805;28;20546;-52
2021/03/20 10:35:37;;;;;;;0.20;0.10;;;;;;;4.15;65.17;101460.34;5051641;28;20443;-53
2021/03/20 10:38:21;;;;;;;0.20;0.10;;;;;;;4.44;64.21;101463.44;5055176;28;20446;-53
2021/03/20 10:41:04;;;;;;;0.20;0.10;;;;;;;4.43;65.59;101445.88;5049544;28;20494;-53
2021/03/20 10:43:38;;;;;;;0.30;0.20;;;;;;;4.72;63.87;101443.66;5049265;28;20466;-53
2021/03/20 10:46:04;;;;;;;0.20;0.10;;;;;;;4.88;63.18;101449.13;5052339;28;20442;-52
2021/03/20 10:48:32;;;;;;;0.20;0.10;;;;;;;4.90;62.37;101450.03;5041835;28;20447;-53
2021/03/20 10:51:04;;;;;;;0.20;0.10;;;;;;;4.69;62.82;101448.88;5045566;28;20498;-53
2021/03/20 10:53:53;;;;;;;0.20;0.10;;;;;;;5.08;65.70;101452.03;5052075;28;20818;-52
2021/03/20 10:56:28;;;;;;;0.20;0.10;;;;;;;4.90;62.70;101447.38;5040401;28;20455;-53
2021/03/20 10:58:54;;;;;;;0.20;0.20;;;;;;;4.89;63.11;101449.13;5053710;28;20490;-52
2021/03/20 11:01:34;;;;;;;0.20;0.20;;;;;;;5.05;64.88;101442.31;5052298;28;20450;-52
2021/03/20 11:04:03;;;;;;;0.20;0.10;;;;;;;4.70;62.42;101442.75;5045113;28;20474;-53
2021/03/20 11:06:30;;;;;;;0.20;0.10;;;;;;;4.78;62.68;101442.84;5041427;28;20451;-52
2021/03/20 11:09:18;;;;;;;0.20;0.10;;;;;;;4.70;60.89;101442.75;5053350;28;20443;-53
2021/03/20 11:11:45;;;;;;;0.20;0.10;;;;;;;5.01;62.84;101430.84;5054698;28;20458;-53
2021/03/20 11:14:15;;;;;;;0.20;0.20;;;;;;;5.47;62.71;101430.50;5041339;28;20463;-52
2021/03/20 11:17:05;;;;;;;0.20;0.10;;;;;;;5.49;61.54;101432.31;5045291;28;20972;-52
2021/03/20 17:49:54;;;;;;;0.30;0.20;;;;;;;5.88;61.00;101165.28;5090589;28;20614;-53
2021/03/20 17:52:20;;;;;;;0.30;0.20;;;;;;;5.99;60.97;101167.16;5089957;28;20878;-52
2021/03/20 17:54:47;;;;;;;0.30;0.20;;;;;;;5.94;61.18;101156.59;5076283;28;20476;-53
2021/03/20 17:57:13;;;;;;;0.30;0.20;;;;;;;6.09;60.57;101163.69;5084196;28;20453;-52
2021/03/20 18:02:12;;;;;;;0.30;0.20;;;;;;;6.10;61.83;101166.31;5029119;28;21045;-55
2021/03/20 18:04:39;;;;;;;0.30;0.20;;;;;;;6.02;61.25;101157.47;5015884;28;20971;-55
2021/03/20 18:07:05;;;;;;;0.30;0.20;;;;;;;6.11;61.00;101157.53;5018681;28;20834;-55
2021/03/20 18:09:32;;;;;;;0.50;0.50;;;;;;;6.20;60.98;101161.97;5015219;28;20843;-55
2021/03/20 18:11:58;;;;;;;0.30;0.20;;;;;;;6.15;61.36;101161.94;5018281;28;20509;-55
2021/03/20 18:14:25;;;;;;;0.30;0.20;;;;;;;6.20;61.45;101168.13;5015206;28;20865;-55
2021/03/20 18:16:51;;;;;;;0.30;0.20;;;;;;;6.18;61.32;101172.53;5022059;28;20868;-55
2021/03/20 18:19:18;;;;;;;0.30;0.20;;;;;;;6.16;62.00;101168.97;5019642;28;20836;-55
2021/03/20 18:21:44;;;;;;;0.30;0.20;;;;;;;6.19;61.70;101170.75;5031403;28;20522;-55
2021/03/20 18:24:10;;;;;;;0.50;0.50;;;;;;;6.16;61.06;101165.44;5023391;28;20447;-55
2021/03/20 18:26:37;;;;;;;0.30;0.20;;;;;;;6.18;61.26;101166.34;5013983;28;20472;-55
2021/03/20 18:29:06;;;;;;;0.30;0.20;;;;;;;6.11;61.34;101164.56;5025952;28;20494;-55
2021/03/20 18:31:32;;;;;;;0.30;0.20;;;;;;;6.09;61.58;101161.03;5020692;28;20475;-55
2021/03/20 18:33:59;;;;;;;0.30;0.20;;;;;;;6.03;62.59;101161.00;5012251;28;20448;-55
2021/03/20 18:36:25;;;;;;;0.30;0.20;;;;;;;6.11;61.70;101175.13;5020331;28;20464;-55
2021/03/20 18:38:52;;;;;;;0.30;0.20;;;;;;;6.07;61.73;101176.00;5011977;28;20449;-55
2021/03/20 18:41:21;;;;;;;0.30;0.20;;;;;;;5.92;62.03;101172.41;5020996;28;20480;-55
2021/03/20 18:43:47;;;;;;;0.30;0.20;;;;;;;5.85;64.04;101177.59;5013456;28;20453;-55
2021/03/20 18:46:14;;;;;;;0.30;0.20;;;;;;;5.74;65.21;101177.53;5028792;28;20909;-55
2021/03/20 18:48:41;;;;;;;0.30;0.20;;;;;;;5.86;67.50;101176.72;5027413;28;20491;-55